createdAt,value
2023-09-11T00:00:26.586Z,15.29
2023-09-11T00:02:53.296Z,15.23
2023-09-11T00:05:20.046Z,15.23
2023-09-11T00:07:46.556Z,15.18
2023-09-11T00:10:13.071Z,15.16
2023-09-11T00:12:39.628Z,15.13
2023-09-11T00:15:06.858Z,15.12
2023-09-11T00:17:33.858Z,15.09
2023-09-11T00:20:00.455Z,15.04
2023-09-11T00:22:27.049Z,15.02
2023-09-11T00:24:53.547Z,15.00
2023-09-11T00:27:20.077Z,14.95
2023-09-11T00:29:46.592Z,14.95
2023-09-11T00:32:13.175Z,14.91
2023-09-11T00:34:39.651Z,14.88
2023-09-11T00:37:06.182Z,14.86
2023-09-11T00:39:32.708Z,14.83
2023-09-11T00:41:59.379Z,14.78
2023-09-11T00:44:26.185Z,14.76
2023-09-11T00:46:52.973Z,14.75
2023-09-11T00:49:21.358Z,14.73
2023-09-11T00:51:49.154Z,14.73
2023-09-11T00:54:16.137Z,14.69
2023-09-11T00:56:42.778Z,14.68
2023-09-11T00:59:09.821Z,14.65
2023-09-11T01:01:37.197Z,14.62
2023-09-11T01:04:03.864Z,14.61
2023-09-11T01:06:30.396Z,14.58
2023-09-11T01:08:58.121Z,14.54
2023-09-11T01:11:24.741Z,14.49
2023-09-11T01:13:51.723Z,14.49
2023-09-11T01:16:18.220Z,14.46
2023-09-11T01:19:07.031Z,14.45
2023-09-11T01:22:07.847Z,14.41
2023-09-11T01:25:12.461Z,14.41
2023-09-11T01:27:55.418Z,14.35
2023-09-11T01:30:23.242Z,14.32
2023-09-11T01:32:50.627Z,14.31
2023-09-11T01:35:17.412Z,14.27
2023-09-11T01:37:44.215Z,14.27
2023-09-11T01:40:10.986Z,14.24
2023-09-11T01:42:45.079Z,14.18
2023-09-11T01:45:15.950Z,14.17
2023-09-11T01:47:52.680Z,14.14
2023-09-11T01:50:22.878Z,14.13
2023-09-11T01:52:50.959Z,14.11
2023-09-11T01:55:18.109Z,14.09
2023-09-11T01:57:44.945Z,14.06
2023-09-11T02:00:12.948Z,14.03
2023-09-11T02:02:40.412Z,14.02
2023-09-11T02:05:07.844Z,13.99
2023-09-11T02:07:34.385Z,13.99
2023-09-11T02:10:00.900Z,13.97
2023-09-11T02:12:27.390Z,13.96
2023-09-11T02:14:54.135Z,13.96
2023-09-11T02:17:20.682Z,13.93
2023-09-11T02:19:47.170Z,13.93
2023-09-11T02:22:13.714Z,13.89
2023-09-11T02:24:40.234Z,13.87
2023-09-11T02:27:06.844Z,13.83
2023-09-11T02:29:33.541Z,13.82
2023-09-11T02:32:01.477Z,13.80
2023-09-11T02:34:27.986Z,13.77
2023-09-11T02:36:54.543Z,13.76
2023-09-11T02:39:21.052Z,13.74
2023-09-11T02:41:47.618Z,13.73
2023-09-11T02:44:14.098Z,13.70
2023-09-11T02:46:40.665Z,13.69
2023-09-11T02:49:07.167Z,13.66
2023-09-11T02:51:33.824Z,13.65
2023-09-11T02:54:00.499Z,13.65
2023-09-11T02:56:27.077Z,13.66
2023-09-11T02:58:53.643Z,13.66
2023-09-11T03:01:20.824Z,13.63
2023-09-11T03:03:47.529Z,13.63
2023-09-11T03:06:14.416Z,13.61
2023-09-11T03:08:41.145Z,13.55
2023-09-11T03:11:10.394Z,13.53
2023-09-11T03:13:37.810Z,13.51
2023-09-11T03:16:11.728Z,13.52
2023-09-11T03:18:39.888Z,13.51
2023-09-11T03:21:08.379Z,13.48
2023-09-11T03:23:35.767Z,13.45
2023-09-11T03:26:02.706Z,13.43
2023-09-11T03:28:30.785Z,13.41
2023-09-11T03:30:57.761Z,13.41
2023-09-11T03:33:24.713Z,13.39
2023-09-11T03:35:51.449Z,13.39
2023-09-11T03:38:17.981Z,13.39
2023-09-11T03:40:46.899Z,13.38
2023-09-11T03:43:14.071Z,13.38
2023-09-11T03:45:40.692Z,13.36
2023-09-11T03:48:07.356Z,13.36
2023-09-11T03:50:35.150Z,13.34
2023-09-11T03:53:01.668Z,13.34
2023-09-11T03:55:28.649Z,13.31
2023-09-11T03:57:55.338Z,13.31
2023-09-11T04:00:22.109Z,13.28
2023-09-11T04:02:48.795Z,13.26
2023-09-11T04:05:15.483Z,13.22
2023-09-11T04:07:42.683Z,13.24
2023-09-11T04:10:09.547Z,13.22
2023-09-11T04:12:36.089Z,13.18
2023-09-11T04:15:02.730Z,13.16
2023-09-11T04:17:29.335Z,13.14
2023-09-11T04:19:56.022Z,13.15
2023-09-11T04:22:22.622Z,13.16
2023-09-11T04:24:49.324Z,13.15
2023-09-11T04:27:15.870Z,13.14
2023-09-11T04:29:43.392Z,13.12
2023-09-11T04:32:10.410Z,13.10
2023-09-11T04:34:37.018Z,13.10
2023-09-11T04:37:03.781Z,13.07
2023-09-11T04:39:30.332Z,13.05
2023-09-11T04:41:56.931Z,13.07
2023-09-11T04:44:23.559Z,13.08
2023-09-11T04:46:50.245Z,13.11
2023-09-11T04:49:16.789Z,13.11
2023-09-11T04:51:43.338Z,13.11
2023-09-11T04:54:09.886Z,13.12
2023-09-11T04:56:36.456Z,13.15
2023-09-11T04:59:03.157Z,13.15
2023-09-11T05:01:29.748Z,13.15
2023-09-11T05:03:56.651Z,13.21
2023-09-11T05:06:23.428Z,13.21
2023-09-11T05:09:10.646Z,13.21
2023-09-11T05:11:37.450Z,13.24
2023-09-11T05:14:04.052Z,13.26
2023-09-11T05:16:31.022Z,13.26
2023-09-11T05:18:57.653Z,13.32
2023-09-11T05:21:24.166Z,13.38
2023-09-11T05:23:50.780Z,13.43
2023-09-11T05:26:17.437Z,13.49
2023-09-11T05:28:43.986Z,13.53
2023-09-11T05:31:11.548Z,13.61
2023-09-11T05:33:38.113Z,13.70
2023-09-11T05:36:05.110Z,13.77
2023-09-11T05:38:31.918Z,13.90
2023-09-11T05:40:58.600Z,14.03
2023-09-11T05:43:28.931Z,14.13
2023-09-11T05:45:56.315Z,14.27
2023-09-11T05:48:24.406Z,14.42
2023-09-11T05:50:53.196Z,14.57
2023-09-11T05:53:19.830Z,14.69
2023-09-11T05:55:46.969Z,14.82
2023-09-11T05:58:13.789Z,14.98
2023-09-11T06:00:40.467Z,15.14
2023-09-11T06:03:07.625Z,15.29
2023-09-11T06:05:37.811Z,15.43
2023-09-11T06:08:04.784Z,15.63
2023-09-11T06:10:31.517Z,15.81
2023-09-11T06:12:58.020Z,16.01
2023-09-11T06:15:26.073Z,16.32
2023-09-11T06:17:52.839Z,16.80
2023-09-11T06:20:21.189Z,17.17
2023-09-11T06:22:48.608Z,17.42
2023-09-11T06:25:16.275Z,17.79
2023-09-11T06:27:42.841Z,18.23
2023-09-11T06:30:09.982Z,18.96
2023-09-11T06:32:37.198Z,19.49
2023-09-11T06:35:06.912Z,19.75
2023-09-11T06:37:33.449Z,19.71
2023-09-11T06:40:00.001Z,19.59
2023-09-11T06:42:26.486Z,19.49
2023-09-11T06:44:54.054Z,19.40
2023-09-11T06:47:21.187Z,19.37
2023-09-11T06:49:48.164Z,19.46
2023-09-11T06:52:17.037Z,19.56
2023-09-11T06:54:43.687Z,19.73
2023-09-11T06:57:10.227Z,19.82
2023-09-11T06:59:36.798Z,20.01
2023-09-11T07:02:03.545Z,20.52
2023-09-11T07:04:31.841Z,21.54
2023-09-11T07:06:58.521Z,22.43
2023-09-11T07:09:25.042Z,23.07
2023-09-11T07:11:52.140Z,23.59
2023-09-11T07:14:22.563Z,24.38
2023-09-11T07:16:49.469Z,25.46
2023-09-11T07:19:16.327Z,25.88
2023-09-11T07:21:45.337Z,25.67
2023-09-11T07:24:12.802Z,25.70
2023-09-11T07:26:39.770Z,25.65
2023-09-11T07:29:06.390Z,26.08
2023-09-11T07:31:33.565Z,26.98
2023-09-11T07:34:00.354Z,27.86
2023-09-11T07:36:28.841Z,28.43
2023-09-11T07:38:55.701Z,29.22
2023-09-11T07:41:22.493Z,30.07
2023-09-11T07:43:52.471Z,30.00
2023-09-11T07:46:21.072Z,30.39
2023-09-11T08:49:24.203Z,36.67
2023-09-11T08:51:54.102Z,37.09
2023-09-11T08:54:25.443Z,37.97
2023-09-11T08:56:54.697Z,38.12
2023-09-11T08:59:24.932Z,37.94
2023-09-11T09:01:52.814Z,37.80
2023-09-11T09:04:20.533Z,38.55
2023-09-11T09:06:48.057Z,38.79
2023-09-11T09:09:14.714Z,38.55
2023-09-11T09:11:49.108Z,38.73
2023-09-11T09:14:19.837Z,38.01
2023-09-11T09:16:47.287Z,37.44
2023-09-11T09:19:14.205Z,37.87
2023-09-11T09:22:06.561Z,37.33
2023-09-11T09:24:38.571Z,38.53
2023-09-11T09:27:06.793Z,38.96
2023-09-11T09:29:38.638Z,38.72
2023-09-11T09:32:07.251Z,39.95
2023-09-11T09:34:35.822Z,40.55
2023-09-11T09:37:03.029Z,40.04
2023-09-11T09:39:30.981Z,40.62
2023-09-11T09:41:59.800Z,40.06
2023-09-11T09:44:29.117Z,40.15
2023-09-11T09:46:55.771Z,39.72
2023-09-11T09:49:23.313Z,39.07
2023-09-11T09:51:50.016Z,40.77
2023-09-11T09:54:16.593Z,40.82
2023-09-11T09:56:43.441Z,39.98
2023-09-11T09:59:10.040Z,40.66
2023-09-11T10:01:47.511Z,41.33
2023-09-11T10:04:17.540Z,40.83
2023-09-11T10:06:56.217Z,38.75
2023-09-11T10:09:23.079Z,39.71
2023-09-11T10:11:51.979Z,40.60
2023-09-11T10:14:19.830Z,41.13
2023-09-11T10:16:47.537Z,40.91
2023-09-11T10:19:14.327Z,41.07
2023-09-11T10:21:41.170Z,40.70
2023-09-11T10:24:09.855Z,40.16
2023-09-11T10:26:39.542Z,40.52
2023-09-11T10:29:12.951Z,38.12
2023-09-11T10:32:10.260Z,39.65
2023-09-11T10:34:38.622Z,40.52
2023-09-11T10:37:06.377Z,40.76
2023-09-11T10:39:37.461Z,40.35
2023-09-11T10:42:04.309Z,40.33
2023-09-11T10:44:35.597Z,40.50
2023-09-11T10:47:03.958Z,40.86
2023-09-11T10:49:35.622Z,40.94
2023-09-11T10:52:04.709Z,41.96
2023-09-11T10:54:31.374Z,39.41
2023-09-11T10:56:58.116Z,40.55
2023-09-11T10:59:25.267Z,41.23
2023-09-11T11:01:52.541Z,41.66
2023-09-11T11:04:19.639Z,42.22
2023-09-11T11:06:47.437Z,41.11
2023-09-11T11:09:33.262Z,40.63
2023-09-11T11:12:05.369Z,39.91
2023-09-11T11:14:32.407Z,39.81
2023-09-11T11:17:11.169Z,40.88
2023-09-11T11:20:01.659Z,40.87
2023-09-11T11:22:33.353Z,40.57
2023-09-11T11:25:04.450Z,40.43
2023-09-11T11:27:30.993Z,39.68
2023-09-11T11:29:58.545Z,40.40
2023-09-11T11:32:26.691Z,40.87
2023-09-11T11:34:56.123Z,40.31
2023-09-11T11:37:25.026Z,41.03
2023-09-11T11:39:51.921Z,39.09
2023-09-11T11:42:18.795Z,40.25
2023-09-11T11:44:45.712Z,40.74
2023-09-11T11:47:13.146Z,39.28
2023-09-11T11:49:39.993Z,39.62
2023-09-11T11:52:06.851Z,40.15
2023-09-11T11:54:34.877Z,40.66
2023-09-11T11:57:03.918Z,39.88
2023-09-11T11:59:31.963Z,39.24
2023-09-11T12:01:58.781Z,40.52
2023-09-11T12:04:45.330Z,38.92
2023-09-11T12:07:12.479Z,38.48
2023-09-11T12:09:42.299Z,40.05
2023-09-11T12:12:09.464Z,40.33
2023-09-11T12:14:37.639Z,40.52
2023-09-11T12:17:09.424Z,39.84
2023-09-11T12:19:36.189Z,40.68
2023-09-11T12:22:03.548Z,40.97
2023-09-11T12:24:30.155Z,40.52
2023-09-11T12:26:56.945Z,40.49
2023-09-11T12:29:24.320Z,40.15
2023-09-11T12:31:51.483Z,40.20
2023-09-11T12:34:18.032Z,40.26
2023-09-11T12:36:44.821Z,39.72
2023-09-11T12:39:11.725Z,41.11
2023-09-11T12:41:38.399Z,41.20
2023-09-11T12:44:06.092Z,39.72
2023-09-11T12:46:32.804Z,40.09
2023-09-11T12:49:00.038Z,39.57
2023-09-11T12:51:26.837Z,38.59
2023-09-11T12:53:53.417Z,39.38
2023-09-11T12:56:21.773Z,38.51
2023-09-11T12:58:49.014Z,39.16
2023-09-11T13:01:15.645Z,39.31
2023-09-11T13:03:47.196Z,39.23
2023-09-11T13:06:14.119Z,38.60
2023-09-11T13:08:41.783Z,37.82
2023-09-11T13:11:08.644Z,38.29
2023-09-11T13:13:43.900Z,39.09
2023-09-11T13:16:10.786Z,39.09
2023-09-11T13:18:37.479Z,38.72
2023-09-11T13:21:04.511Z,37.29
2023-09-11T13:23:31.136Z,37.85
2023-09-11T13:25:57.897Z,37.36
2023-09-11T13:28:24.538Z,37.90
2023-09-11T13:30:51.208Z,38.33
2023-09-11T13:33:17.835Z,38.48
2023-09-11T13:35:44.523Z,37.71
2023-09-11T13:38:11.055Z,37.63
2023-09-11T13:40:37.575Z,36.96
2023-09-11T13:43:04.335Z,37.11
2023-09-11T13:45:31.017Z,37.46
2023-09-11T13:47:57.845Z,37.08
2023-09-11T13:50:24.600Z,37.43
2023-09-11T13:52:51.113Z,37.66
2023-09-11T13:55:17.865Z,37.63
2023-09-11T13:57:44.393Z,37.57
2023-09-11T14:00:11.667Z,36.96
2023-09-11T14:02:38.503Z,37.46
2023-09-11T14:05:05.610Z,37.11
2023-09-11T14:07:32.159Z,36.85
2023-09-11T14:09:58.700Z,36.82
2023-09-11T14:12:25.299Z,36.92
2023-09-11T14:14:51.926Z,36.95
2023-09-11T14:17:18.557Z,36.20
2023-09-11T14:19:45.114Z,36.55
2023-09-11T14:22:11.611Z,36.49
2023-09-11T14:24:40.952Z,36.83
2023-09-11T14:27:10.771Z,36.78
2023-09-11T14:29:37.368Z,36.75
2023-09-11T14:32:07.059Z,36.03
2023-09-11T14:34:34.680Z,35.31
2023-09-11T14:37:16.843Z,35.09
2023-09-11T14:39:48.202Z,34.56
2023-09-11T14:42:15.329Z,34.81
2023-09-11T14:44:42.157Z,34.57
2023-09-11T14:47:08.716Z,34.57
2023-09-11T14:49:35.254Z,34.40
2023-09-11T14:52:01.785Z,33.96
2023-09-11T14:54:33.073Z,33.90
2023-09-11T14:57:09.696Z,34.21
2023-09-11T14:59:36.296Z,34.09
2023-09-11T15:02:02.920Z,33.34
2023-09-11T15:04:46.888Z,32.91
2023-09-11T15:07:15.753Z,32.60
2023-09-11T15:09:42.511Z,32.23
2023-09-11T15:12:09.815Z,32.05
2023-09-11T15:14:38.105Z,31.88
2023-09-11T15:17:05.527Z,31.55
2023-09-11T15:19:32.272Z,31.41
2023-09-11T15:21:58.754Z,31.50
2023-09-11T15:24:25.317Z,31.57
2023-09-11T15:26:51.963Z,31.45
2023-09-11T15:29:18.568Z,31.34
2023-09-11T15:31:52.409Z,31.23
2023-09-11T15:34:30.633Z,31.70
2023-09-11T15:36:57.259Z,31.81
2023-09-11T15:39:23.839Z,32.18
2023-09-11T15:41:50.430Z,31.96
2023-09-11T15:44:17.082Z,31.74
2023-09-11T15:46:44.002Z,31.91
2023-09-11T15:49:12.861Z,31.93
2023-09-11T15:51:39.615Z,32.06
2023-09-11T15:54:06.373Z,32.06
2023-09-11T15:56:33.020Z,31.65
2023-09-11T15:58:59.616Z,31.23
2023-09-11T16:01:26.274Z,30.71
2023-09-11T16:03:53.446Z,30.03
2023-09-11T16:06:20.143Z,29.85
2023-09-11T16:08:48.454Z,29.46
2023-09-11T16:11:15.188Z,29.06
2023-09-11T16:13:41.758Z,28.79
2023-09-11T16:16:08.551Z,28.48
2023-09-11T16:18:35.228Z,28.27
2023-09-11T16:21:01.819Z,28.04
2023-09-11T16:23:28.386Z,27.88
2023-09-11T16:25:54.938Z,27.70
2023-09-11T16:28:26.089Z,27.45
2023-09-11T16:30:53.076Z,27.30
2023-09-11T16:33:19.766Z,27.08
2023-09-11T16:35:46.390Z,26.94
2023-09-11T16:38:13.278Z,26.72
2023-09-11T16:40:39.808Z,26.53
2023-09-11T16:43:07.521Z,26.39
2023-09-11T16:45:34.096Z,26.19
2023-09-11T16:48:00.688Z,26.08
2023-09-11T16:50:27.312Z,25.94
2023-09-11T16:52:56.785Z,25.74
2023-09-11T16:55:23.830Z,25.60
2023-09-11T16:57:50.369Z,25.44
2023-09-11T17:00:17.614Z,25.28
2023-09-11T17:02:45.582Z,25.12
2023-09-11T17:05:12.428Z,24.97
2023-09-11T17:07:39.033Z,24.80
2023-09-11T17:10:06.949Z,24.65
2023-09-11T17:12:33.997Z,24.52
2023-09-11T17:15:00.598Z,24.37
2023-09-11T17:17:27.206Z,24.22
2023-09-11T17:19:57.178Z,24.10
2023-09-11T17:22:23.908Z,23.97
2023-09-11T17:24:51.359Z,23.83
2023-09-11T17:27:20.468Z,23.73
2023-09-11T17:29:47.078Z,23.56
2023-09-11T17:32:13.698Z,23.41
2023-09-11T17:34:40.249Z,23.26
2023-09-11T17:37:07.528Z,23.12
2023-09-11T17:39:34.092Z,22.98
2023-09-11T17:42:00.716Z,22.87
2023-09-11T17:44:28.452Z,22.71
2023-09-11T17:46:55.000Z,22.64
2023-09-11T17:49:21.603Z,22.47
2023-09-11T17:51:48.241Z,22.32
2023-09-11T17:54:14.925Z,22.20
2023-09-11T17:56:41.540Z,22.13
2023-09-11T17:59:08.134Z,22.03
2023-09-11T18:01:34.674Z,21.95
2023-09-11T18:04:01.393Z,21.86
2023-09-11T18:06:28.848Z,21.77
2023-09-11T18:08:57.032Z,21.68
2023-09-11T18:11:23.582Z,21.57
2023-09-11T18:13:53.191Z,21.51
2023-09-11T18:16:19.850Z,21.38
2023-09-11T18:18:46.557Z,21.31
2023-09-11T18:21:13.336Z,21.21
2023-09-11T18:23:39.973Z,21.14
2023-09-11T18:26:06.555Z,21.07
2023-09-11T18:28:33.724Z,20.97
2023-09-11T18:31:00.299Z,20.86
2023-09-11T18:33:27.173Z,20.77
2023-09-11T18:35:55.255Z,20.75
2023-09-11T18:38:22.225Z,20.66
2023-09-11T18:40:48.830Z,20.59
2023-09-11T18:43:16.934Z,20.52
2023-09-11T18:45:43.786Z,20.42
2023-09-11T18:48:10.453Z,20.38
2023-09-11T18:50:37.327Z,20.28
2023-09-11T18:53:04.128Z,20.26
2023-09-11T18:55:32.369Z,20.21
2023-09-11T18:57:59.057Z,20.15
2023-09-11T19:00:27.439Z,20.08
2023-09-11T19:02:54.288Z,20.01
2023-09-11T19:05:21.086Z,19.94
2023-09-11T19:07:47.617Z,19.90
2023-09-11T19:10:14.259Z,19.84
2023-09-11T19:12:41.956Z,19.77
2023-09-11T19:15:08.768Z,19.69
2023-09-11T19:17:35.505Z,19.63
2023-09-11T19:20:02.131Z,19.59
2023-09-11T19:22:28.647Z,19.51
2023-09-11T19:24:58.900Z,19.47
2023-09-11T19:27:25.426Z,19.43
2023-09-11T19:29:52.024Z,19.36
2023-09-11T19:32:18.570Z,19.32
2023-09-11T19:34:45.275Z,19.26
2023-09-11T19:37:12.998Z,19.22
2023-09-11T19:39:39.619Z,19.15
2023-09-11T19:42:06.271Z,19.10
2023-09-11T19:44:32.955Z,19.08
2023-09-11T19:46:59.566Z,18.98
2023-09-11T19:49:26.125Z,18.95
2023-09-11T19:51:52.647Z,18.92
2023-09-11T19:54:19.217Z,18.85
2023-09-11T19:56:46.059Z,18.78
2023-09-11T19:59:12.660Z,18.73
2023-09-11T20:01:39.424Z,18.73
2023-09-11T20:04:06.495Z,18.69
2023-09-11T20:06:33.493Z,18.61
2023-09-11T20:09:00.363Z,18.55
2023-09-11T20:11:27.457Z,18.50
2023-09-11T20:13:54.024Z,18.47
2023-09-11T20:16:20.815Z,18.41
2023-09-11T20:18:47.555Z,18.37
2023-09-11T20:21:14.251Z,18.34
2023-09-11T20:23:40.804Z,18.30
2023-09-11T20:26:07.499Z,18.26
2023-09-11T20:28:34.033Z,18.23
2023-09-11T20:31:16.423Z,18.20
2023-09-11T20:33:44.512Z,18.16
2023-09-11T20:36:16.555Z,18.14
2023-09-11T20:38:46.873Z,18.11
2023-09-11T20:41:13.410Z,18.03
2023-09-11T20:43:43.467Z,18.04
2023-09-11T20:46:11.507Z,17.99
2023-09-11T20:48:40.537Z,17.96
2023-09-11T20:51:11.880Z,17.90
2023-09-11T20:53:39.060Z,17.87
2023-09-11T20:56:06.997Z,17.83
2023-09-11T20:58:33.972Z,17.78
2023-09-11T21:01:05.137Z,17.76
2023-09-11T21:03:32.936Z,17.75
2023-09-11T21:06:00.848Z,17.69
2023-09-11T21:08:27.737Z,17.63
2023-09-11T21:10:54.471Z,17.61
2023-09-11T21:13:25.118Z,17.52
2023-09-11T21:15:51.875Z,17.49
2023-09-11T21:18:19.019Z,17.45
2023-09-11T21:20:45.662Z,17.38
2023-09-11T21:23:12.218Z,17.36
2023-09-11T21:25:38.869Z,17.32
2023-09-11T21:28:05.704Z,17.28
2023-09-11T21:30:33.583Z,17.27
2023-09-11T21:33:00.642Z,17.24
2023-09-11T21:35:27.406Z,17.27
2023-09-11T21:37:53.932Z,17.25
2023-09-11T21:40:20.534Z,17.20
2023-09-11T21:42:47.118Z,17.15
2023-09-11T21:45:13.755Z,17.14
2023-09-11T21:47:40.430Z,17.10
2023-09-11T21:50:07.254Z,17.04
2023-09-11T21:52:33.881Z,17.03
2023-09-11T21:55:00.466Z,16.99
2023-09-11T21:57:27.499Z,16.93
2023-09-11T21:59:54.109Z,16.88
2023-09-11T22:02:20.743Z,16.88
2023-09-11T22:04:50.784Z,16.84
2023-09-11T22:07:17.700Z,16.81
2023-09-11T22:09:44.370Z,16.80
2023-09-11T22:12:13.125Z,16.74
2023-09-11T22:14:40.055Z,16.74
2023-09-11T22:17:06.635Z,16.70
2023-09-11T22:19:33.327Z,16.63
2023-09-11T22:21:59.882Z,16.64
2023-09-11T22:24:26.447Z,16.60
2023-09-11T22:26:52.970Z,16.56
2023-09-11T22:29:20.623Z,16.56
2023-09-11T22:31:47.635Z,16.56
2023-09-11T22:34:14.880Z,16.49
2023-09-11T22:36:41.601Z,16.48
2023-09-11T22:39:08.180Z,16.46
2023-09-11T22:41:34.732Z,16.42
2023-09-11T22:44:01.277Z,16.39
2023-09-11T22:46:27.909Z,16.38
2023-09-11T22:48:54.570Z,16.38
2023-09-11T22:51:21.219Z,16.32
2023-09-11T22:53:47.748Z,16.30
2023-09-11T22:56:14.349Z,16.28
2023-09-11T22:58:41.126Z,16.28
2023-09-11T23:01:30.376Z,16.22
2023-09-11T23:03:57.609Z,16.19
2023-09-11T23:06:24.429Z,16.19
2023-09-11T23:08:51.074Z,16.18
2023-09-11T23:11:17.606Z,16.15
2023-09-11T23:13:44.158Z,16.13
2023-09-11T23:16:10.753Z,16.11
2023-09-11T23:18:37.366Z,16.11
2023-09-11T23:21:04.037Z,16.11
2023-09-11T23:23:40.044Z,16.09
2023-09-11T23:26:07.903Z,16.06
2023-09-11T23:28:34.755Z,16.04
2023-09-11T23:31:01.575Z,16.02
2023-09-11T23:33:28.287Z,16.02
2023-09-11T23:35:55.421Z,15.98
2023-09-11T23:38:22.024Z,15.95
2023-09-11T23:40:48.598Z,15.95
2023-09-11T23:43:15.128Z,15.95
2023-09-11T23:45:41.884Z,15.94
2023-09-11T23:48:08.667Z,15.91
2023-09-11T23:50:35.295Z,15.94
2023-09-11T23:53:01.788Z,15.90
2023-09-11T23:55:29.526Z,15.88
2023-09-11T23:57:56.121Z,15.85
